sensor_id;sensor_type;location;lat;lon;timestamp;temperature;humidity
10891;DHT22;5498;50.928;11.598;2023-03-14T00:00:00;11.90;92.60
10891;DHT22;5498;50.928;11.598;2023-03-14T00:03:06;11.80;92.60
10891;DHT22;5498;50.928;11.598;2023-03-14T00:06:09;11.80;92.60
10891;DHT22;5498;50.928;11.598;2023-03-14T00:09:12;11.80;92.80
10891;DHT22;5498;50.928;11.598;2023-03-14T00:12:15;11.70;92.80
10891;DHT22;5498;50.928;11.598;2023-03-14T00:15:17;11.80;92.80
10891;DHT22;5498;50.928;11.598;2023-03-14T00:18:19;11.80;92.80
10891;DHT22;5498;50.928;11.598;2023-03-14T00:21:21;12.20;93.00
10891;DHT22;5498;50.928;11.598;2023-03-14T00:24:23;11.80;92.90
10891;DHT22;5498;50.928;11.598;2023-03-14T00:27:26;11.80;92.90
10891;DHT22;5498;50.928;11.598;2023-03-14T00:30:28;11.70;93.00
10891;DHT22;5498;50.928;11.598;2023-03-14T00:33:30;11.70;93.00
10891;DHT22;5498;50.928;11.598;2023-03-14T00:36:31;11.70;93.00
10891;DHT22;5498;50.928;11.598;2023-03-14T00:39:33;11.70;93.00
10891;DHT22;5498;50.928;11.598;2023-03-14T00:42:36;11.70;92.90
10891;DHT22;5498;50.928;11.598;2023-03-14T00:45:38;11.70;92.90
10891;DHT22;5498;50.928;11.598;2023-03-14T00:48:40;11.70;92.80
10891;DHT22;5498;50.928;11.598;2023-03-14T00:51:42;11.60;92.80
10891;DHT22;5498;50.928;11.598;2023-03-14T00:54:44;11.70;92.80
10891;DHT22;5498;50.928;11.598;2023-03-14T00:57:47;11.70;92.70
10891;DHT22;5498;50.928;11.598;2023-03-14T01:00:49;11.70;92.60
10891;DHT22;5498;50.928;11.598;2023-03-14T01:03:52;11.70;92.60
10891;DHT22;5498;50.928;11.598;2023-03-14T01:06:54;11.70;92.70
10891;DHT22;5498;50.928;11.598;2023-03-14T01:09:56;11.60;92.50
10891;DHT22;5498;50.928;11.598;2023-03-14T01:12:59;11.60;92.40
10891;DHT22;5498;50.928;11.598;2023-03-14T01:16:02;11.60;92.50
10891;DHT22;5498;50.928;11.598;2023-03-14T01:19:05;11.60;92.70
10891;DHT22;5498;50.928;11.598;2023-03-14T01:22:07;11.60;92.50
10891;DHT22;5498;50.928;11.598;2023-03-14T01:25:11;11.60;92.60
10891;DHT22;5498;50.928;11.598;2023-03-14T01:28:16;12.00;92.80
10891;DHT22;5498;50.928;11.598;2023-03-14T01:31:18;11.60;92.50
10891;DHT22;5498;50.928;11.598;2023-03-14T01:34:19;11.60;92.30
10891;DHT22;5498;50.928;11.598;2023-03-14T01:37:21;11.60;92.20
10891;DHT22;5498;50.928;11.598;2023-03-14T01:40:23;11.60;92.10
10891;DHT22;5498;50.928;11.598;2023-03-14T01:43:27;11.60;91.90
10891;DHT22;5498;50.928;11.598;2023-03-14T01:46:37;11.60;91.70
10891;DHT22;5498;50.928;11.598;2023-03-14T01:49:40;11.70;91.60
10891;DHT22;5498;50.928;11.598;2023-03-14T01:52:44;11.70;91.20
10891;DHT22;5498;50.928;11.598;2023-03-14T01:55:50;11.70;91.20
10891;DHT22;5498;50.928;11.598;2023-03-14T01:58:55;11.80;91.10
10891;DHT22;5498;50.928;11.598;2023-03-14T02:01:57;11.80;90.80
10891;DHT22;5498;50.928;11.598;2023-03-14T02:05:16;11.90;90.50
10891;DHT22;5498;50.928;11.598;2023-03-14T02:08:20;11.90;90.10
10891;DHT22;5498;50.928;11.598;2023-03-14T02:11:28;11.90;90.10
10891;DHT22;5498;50.928;11.598;2023-03-14T02:14:34;12.00;90.10
10891;DHT22;5498;50.928;11.598;2023-03-14T02:17:37;12.00;90.20
10891;DHT22;5498;50.928;11.598;2023-03-14T02:20:45;12.00;89.80
10891;DHT22;5498;50.928;11.598;2023-03-14T02:23:57;12.00;89.20
10891;DHT22;5498;50.928;11.598;2023-03-14T02:27:11;12.00;88.80
10891;DHT22;5498;50.928;11.598;2023-03-14T02:30:16;12.00;88.80
10891;DHT22;5498;50.928;11.598;2023-03-14T02:33:20;12.00;88.70
10891;DHT22;5498;50.928;11.598;2023-03-14T02:36:23;12.00;88.50
10891;DHT22;5498;50.928;11.598;2023-03-14T02:39:29;12.00;88.20
10891;DHT22;5498;50.928;11.598;2023-03-14T02:42:35;12.00;88.10
10891;DHT22;5498;50.928;11.598;2023-03-14T02:45:40;12.10;87.50
10891;DHT22;5498;50.928;11.598;2023-03-14T02:48:46;12.10;87.60
10891;DHT22;5498;50.928;11.598;2023-03-14T02:51:50;12.10;87.50
10891;DHT22;5498;50.928;11.598;2023-03-14T02:54:52;12.10;87.30
10891;DHT22;5498;50.928;11.598;2023-03-14T02:57:55;12.10;87.50
10891;DHT22;5498;50.928;11.598;2023-03-14T03:00:56;12.10;87.20
10891;DHT22;5498;50.928;11.598;2023-03-14T03:03:58;12.10;87.20
10891;DHT22;5498;50.928;11.598;2023-03-14T03:07:00;12.10;87.20
10891;DHT22;5498;50.928;11.598;2023-03-14T03:10:02;12.10;87.30
10891;DHT22;5498;50.928;11.598;2023-03-14T03:13:06;12.10;87.30
10891;DHT22;5498;50.928;11.598;2023-03-14T03:16:08;12.10;86.50
10891;DHT22;5498;50.928;11.598;2023-03-14T03:19:10;12.10;87.50
10891;DHT22;5498;50.928;11.598;2023-03-14T03:22:14;12.10;86.50
10891;DHT22;5498;50.928;11.598;2023-03-14T03:25:16;12.60;86.80
10891;DHT22;5498;50.928;11.598;2023-03-14T03:28:19;12.10;86.80
10891;DHT22;5498;50.928;11.598;2023-03-14T03:31:21;12.10;86.60
10891;DHT22;5498;50.928;11.598;2023-03-14T03:34:23;12.10;86.00
10891;DHT22;5498;50.928;11.598;2023-03-14T03:37:25;12.10;86.10
10891;DHT22;5498;50.928;11.598;2023-03-14T03:40:27;12.10;85.70
10891;DHT22;5498;50.928;11.598;2023-03-14T03:43:30;12.10;85.80
10891;DHT22;5498;50.928;11.598;2023-03-14T03:46:32;12.10;86.00
10891;DHT22;5498;50.928;11.598;2023-03-14T03:49:34;12.10;85.90
10891;DHT22;5498;50.928;11.598;2023-03-14T03:52:36;12.10;85.80
10891;DHT22;5498;50.928;11.598;2023-03-14T03:55:40;12.10;86.10
10891;DHT22;5498;50.928;11.598;2023-03-14T03:58:44;12.10;86.30
10891;DHT22;5498;50.928;11.598;2023-03-14T04:01:46;12.00;85.90
10891;DHT22;5498;50.928;11.598;2023-03-14T04:04:48;12.00;86.30
10891;DHT22;5498;50.928;11.598;2023-03-14T04:07:50;12.10;86.20
10891;DHT22;5498;50.928;11.598;2023-03-14T04:10:54;12.00;86.10
10891;DHT22;5498;50.928;11.598;2023-03-14T04:13:58;12.00;86.50
10891;DHT22;5498;50.928;11.598;2023-03-14T04:17:00;12.10;85.50
10891;DHT22;5498;50.928;11.598;2023-03-14T04:20:03;12.10;85.70
10891;DHT22;5498;50.928;11.598;2023-03-14T04:23:05;12.10;86.20
10891;DHT22;5498;50.928;11.598;2023-03-14T04:26:07;12.00;86.20
10891;DHT22;5498;50.928;11.598;2023-03-14T04:29:10;12.10;86.30
10891;DHT22;5498;50.928;11.598;2023-03-14T04:32:12;12.00;86.20
10891;DHT22;5498;50.928;11.598;2023-03-14T04:35:14;12.00;86.30
10891;DHT22;5498;50.928;11.598;2023-03-14T04:38:16;12.00;86.20
10891;DHT22;5498;50.928;11.598;2023-03-14T04:41:18;12.00;86.40
10891;DHT22;5498;50.928;11.598;2023-03-14T04:44:21;12.00;86.50
10891;DHT22;5498;50.928;11.598;2023-03-14T04:47:23;12.00;86.70
10891;DHT22;5498;50.928;11.598;2023-03-14T04:50:24;12.00;86.60
10891;DHT22;5498;50.928;11.598;2023-03-14T04:53:26;12.00;86.30
10891;DHT22;5498;50.928;11.598;2023-03-14T04:56:28;12.00;85.90
10891;DHT22;5498;50.928;11.598;2023-03-14T04:59:31;12.00;86.60
10891;DHT22;5498;50.928;11.598;2023-03-14T05:02:34;12.00;85.70
10891;DHT22;5498;50.928;11.598;2023-03-14T05:05:36;12.00;85.90
10891;DHT22;5498;50.928;11.598;2023-03-14T05:08:37;12.00;85.60
10891;DHT22;5498;50.928;11.598;2023-03-14T05:11:39;11.90;85.50
10891;DHT22;5498;50.928;11.598;2023-03-14T05:14:42;11.90;85.70
10891;DHT22;5498;50.928;11.598;2023-03-14T05:17:44;11.90;85.70
10891;DHT22;5498;50.928;11.598;2023-03-14T05:20:47;11.90;85.70
10891;DHT22;5498;50.928;11.598;2023-03-14T05:23:51;11.90;86.10
10891;DHT22;5498;50.928;11.598;2023-03-14T05:26:53;11.90;85.90
10891;DHT22;5498;50.928;11.598;2023-03-14T05:29:56;11.90;85.90
10891;DHT22;5498;50.928;11.598;2023-03-14T05:32:58;11.90;86.20
10891;DHT22;5498;50.928;11.598;2023-03-14T05:36:00;11.90;86.10
10891;DHT22;5498;50.928;11.598;2023-03-14T05:39:02;11.80;86.20
10891;DHT22;5498;50.928;11.598;2023-03-14T05:42:04;11.80;86.30
10891;DHT22;5498;50.928;11.598;2023-03-14T05:45:08;11.80;86.00
10891;DHT22;5498;50.928;11.598;2023-03-14T05:48:10;11.80;86.10
10891;DHT22;5498;50.928;11.598;2023-03-14T05:51:12;11.80;85.90
10891;DHT22;5498;50.928;11.598;2023-03-14T05:54:14;11.80;85.80
10891;DHT22;5498;50.928;11.598;2023-03-14T05:57:16;11.80;85.50
10891;DHT22;5498;50.928;11.598;2023-03-14T06:00:20;11.80;85.60
10891;DHT22;5498;50.928;11.598;2023-03-14T06:03:22;11.80;85.80
10891;DHT22;5498;50.928;11.598;2023-03-14T06:06:24;11.70;85.20
10891;DHT22;5498;50.928;11.598;2023-03-14T06:09:26;11.70;85.10
10891;DHT22;5498;50.928;11.598;2023-03-14T06:12:28;11.70;84.70
10891;DHT22;5498;50.928;11.598;2023-03-14T06:15:31;11.70;84.80
10891;DHT22;5498;50.928;11.598;2023-03-14T06:18:34;11.70;85.00
10891;DHT22;5498;50.928;11.598;2023-03-14T06:21:35;11.70;84.90
10891;DHT22;5498;50.928;11.598;2023-03-14T06:24:37;11.70;85.80
10891;DHT22;5498;50.928;11.598;2023-03-14T06:27:39;11.70;85.10
10891;DHT22;5498;50.928;11.598;2023-03-14T06:30:45;11.80;85.20
10891;DHT22;5498;50.928;11.598;2023-03-14T06:33:47;11.80;85.00
10891;DHT22;5498;50.928;11.598;2023-03-14T06:36:49;11.80;85.00
10891;DHT22;5498;50.928;11.598;2023-03-14T06:39:50;11.80;84.90
10891;DHT22;5498;50.928;11.598;2023-03-14T06:42:52;11.80;84.90
10891;DHT22;5498;50.928;11.598;2023-03-14T06:45:55;11.80;85.30
10891;DHT22;5498;50.928;11.598;2023-03-14T06:48:57;11.90;86.90
10891;DHT22;5498;50.928;11.598;2023-03-14T06:51:59;12.00;87.20
10891;DHT22;5498;50.928;11.598;2023-03-14T06:55:01;12.10;86.40
10891;DHT22;5498;50.928;11.598;2023-03-14T06:58:03;12.20;86.60
10891;DHT22;5498;50.928;11.598;2023-03-14T07:01:20;12.20;86.40
10891;DHT22;5498;50.928;11.598;2023-03-14T07:04:23;12.30;86.40
10891;DHT22;5498;50.928;11.598;2023-03-14T07:07:24;12.40;85.80
10891;DHT22;5498;50.928;11.598;2023-03-14T07:10:26;12.50;86.20
10891;DHT22;5498;50.928;11.598;2023-03-14T07:13:28;12.50;86.20
10891;DHT22;5498;50.928;11.598;2023-03-14T07:16:31;12.60;85.80
10891;DHT22;5498;50.928;11.598;2023-03-14T07:19:33;12.60;85.60
10891;DHT22;5498;50.928;11.598;2023-03-14T07:22:35;12.70;85.40
10891;DHT22;5498;50.928;11.598;2023-03-14T07:25:37;12.70;85.10
10891;DHT22;5498;50.928;11.598;2023-03-14T07:28:39;12.70;84.40
10891;DHT22;5498;50.928;11.598;2023-03-14T07:31:42;12.80;84.50
10891;DHT22;5498;50.928;11.598;2023-03-14T07:34:44;12.80;84.30
10891;DHT22;5498;50.928;11.598;2023-03-14T07:37:46;12.80;84.00
10891;DHT22;5498;50.928;11.598;2023-03-14T07:40:47;12.90;83.30
10891;DHT22;5498;50.928;11.598;2023-03-14T07:43:49;12.90;83.30
10891;DHT22;5498;50.928;11.598;2023-03-14T07:46:53;12.90;83.10
10891;DHT22;5498;50.928;11.598;2023-03-14T07:49:55;13.00;82.40
10891;DHT22;5498;50.928;11.598;2023-03-14T07:52:56;13.00;82.00
10891;DHT22;5498;50.928;11.598;2023-03-14T07:55:58;13.00;82.30
10891;DHT22;5498;50.928;11.598;2023-03-14T07:59:00;13.00;82.60
10891;DHT22;5498;50.928;11.598;2023-03-14T08:02:05;13.50;82.70
10891;DHT22;5498;50.928;11.598;2023-03-14T08:05:11;13.10;82.30
10891;DHT22;5498;50.928;11.598;2023-03-14T08:08:13;13.10;82.70
10891;DHT22;5498;50.928;11.598;2023-03-14T08:11:15;13.20;82.50
10891;DHT22;5498;50.928;11.598;2023-03-14T08:14:16;13.20;82.50
10891;DHT22;5498;50.928;11.598;2023-03-14T08:17:20;13.20;82.20
10891;DHT22;5498;50.928;11.598;2023-03-14T08:20:24;13.80;82.70
10891;DHT22;5498;50.928;11.598;2023-03-14T08:23:27;13.40;82.60
10891;DHT22;5498;50.928;11.598;2023-03-14T08:26:28;14.00;82.50
10891;DHT22;5498;50.928;11.598;2023-03-14T08:29:31;13.50;81.00
10891;DHT22;5498;50.928;11.598;2023-03-14T08:32:36;13.50;80.30
10891;DHT22;5498;50.928;11.598;2023-03-14T08:35:38;13.60;80.80
10891;DHT22;5498;50.928;11.598;2023-03-14T08:38:40;13.60;80.90
10891;DHT22;5498;50.928;11.598;2023-03-14T08:41:42;13.60;80.70
10891;DHT22;5498;50.928;11.598;2023-03-14T08:44:44;13.70;80.50
10891;DHT22;5498;50.928;11.598;2023-03-14T08:47:48;13.70;80.30
10891;DHT22;5498;50.928;11.598;2023-03-14T08:50:49;13.70;80.20
10891;DHT22;5498;50.928;11.598;2023-03-14T08:53:51;13.80;80.50
10891;DHT22;5498;50.928;11.598;2023-03-14T08:56:53;13.80;80.40
10891;DHT22;5498;50.928;11.598;2023-03-14T08:59:55;13.80;79.80
10891;DHT22;5498;50.928;11.598;2023-03-14T09:02:59;13.90;79.10
10891;DHT22;5498;50.928;11.598;2023-03-14T09:06:04;14.00;79.00
10891;DHT22;5498;50.928;11.598;2023-03-14T09:09:07;14.00;78.70
10891;DHT22;5498;50.928;11.598;2023-03-14T09:12:09;14.10;78.40
10891;DHT22;5498;50.928;11.598;2023-03-14T09:15:11;14.20;78.50
10891;DHT22;5498;50.928;11.598;2023-03-14T09:18:14;14.20;78.00
10891;DHT22;5498;50.928;11.598;2023-03-14T09:21:16;14.30;77.10
10891;DHT22;5498;50.928;11.598;2023-03-14T09:24:18;14.30;76.90
10891;DHT22;5498;50.928;11.598;2023-03-14T09:27:20;14.30;76.10
10891;DHT22;5498;50.928;11.598;2023-03-14T09:30:22;14.30;76.50
10891;DHT22;5498;50.928;11.598;2023-03-14T09:33:25;14.30;76.10
10891;DHT22;5498;50.928;11.598;2023-03-14T09:36:27;14.30;76.80
10891;DHT22;5498;50.928;11.598;2023-03-14T09:39:28;14.30;76.60
10891;DHT22;5498;50.928;11.598;2023-03-14T09:42:30;14.30;76.50
10891;DHT22;5498;50.928;11.598;2023-03-14T09:45:34;14.20;76.40
10891;DHT22;5498;50.928;11.598;2023-03-14T09:48:40;14.30;77.00
10891;DHT22;5498;50.928;11.598;2023-03-14T09:51:42;14.30;77.10
10891;DHT22;5498;50.928;11.598;2023-03-14T09:54:49;14.40;77.30
10891;DHT22;5498;50.928;11.598;2023-03-14T09:57:56;14.40;77.30
10891;DHT22;5498;50.928;11.598;2023-03-14T10:00:59;14.50;77.20
10891;DHT22;5498;50.928;11.598;2023-03-14T10:04:09;14.70;76.70
10891;DHT22;5498;50.928;11.598;2023-03-14T10:07:15;14.90;76.10
10891;DHT22;5498;50.928;11.598;2023-03-14T10:10:21;14.90;75.70
10891;DHT22;5498;50.928;11.598;2023-03-14T10:13:26;14.90;74.50
10891;DHT22;5498;50.928;11.598;2023-03-14T10:16:30;14.90;74.90
10891;DHT22;5498;50.928;11.598;2023-03-14T10:19:35;14.90;74.00
10891;DHT22;5498;50.928;11.598;2023-03-14T10:22:37;14.80;74.70
10891;DHT22;5498;50.928;11.598;2023-03-14T10:25:42;14.70;74.80
10891;DHT22;5498;50.928;11.598;2023-03-14T10:28:46;14.70;75.50
10891;DHT22;5498;50.928;11.598;2023-03-14T10:31:53;14.70;76.00
10891;DHT22;5498;50.928;11.598;2023-03-14T10:35:07;14.70;76.20
10891;DHT22;5498;50.928;11.598;2023-03-14T10:38:16;14.60;76.00
10891;DHT22;5498;50.928;11.598;2023-03-14T10:41:30;14.60;76.20
10891;DHT22;5498;50.928;11.598;2023-03-14T10:44:34;14.50;76.30
10891;DHT22;5498;50.928;11.598;2023-03-14T10:47:48;14.50;76.60
10891;DHT22;5498;50.928;11.598;2023-03-14T10:50:57;14.40;76.80
10891;DHT22;5498;50.928;11.598;2023-03-14T10:54:12;14.30;76.80
10891;DHT22;5498;50.928;11.598;2023-03-14T10:57:18;14.30;77.30
10891;DHT22;5498;50.928;11.598;2023-03-14T11:00:22;14.30;77.10
10891;DHT22;5498;50.928;11.598;2023-03-14T11:03:26;14.20;77.10
10891;DHT22;5498;50.928;11.598;2023-03-14T11:06:36;14.20;77.60
10891;DHT22;5498;50.928;11.598;2023-03-14T11:09:47;14.30;78.00
10891;DHT22;5498;50.928;11.598;2023-03-14T11:13:02;14.50;78.10
10891;DHT22;5498;50.928;11.598;2023-03-14T11:16:22;14.60;78.10
10891;DHT22;5498;50.928;11.598;2023-03-14T11:19:43;14.80;77.50
10891;DHT22;5498;50.928;11.598;2023-03-14T11:23:02;14.90;76.50
10891;DHT22;5498;50.928;11.598;2023-03-14T11:26:17;15.00;75.90
10891;DHT22;5498;50.928;11.598;2023-03-14T11:29:30;15.30;76.40
10891;DHT22;5498;50.928;11.598;2023-03-14T11:32:41;15.10;76.00
10891;DHT22;5498;50.928;11.598;2023-03-14T11:35:51;15.10;75.10
10891;DHT22;5498;50.928;11.598;2023-03-14T11:38:59;15.10;75.20
10891;DHT22;5498;50.928;11.598;2023-03-14T11:42:01;15.10;75.30
10891;DHT22;5498;50.928;11.598;2023-03-14T11:45:10;15.00;75.20
10891;DHT22;5498;50.928;11.598;2023-03-14T11:48:22;15.00;75.80
10891;DHT22;5498;50.928;11.598;2023-03-14T11:51:33;15.00;75.20
10891;DHT22;5498;50.928;11.598;2023-03-14T11:54:42;15.00;75.20
10891;DHT22;5498;50.928;11.598;2023-03-14T11:57:49;15.10;75.40
10891;DHT22;5498;50.928;11.598;2023-03-14T12:00:54;15.10;75.20
10891;DHT22;5498;50.928;11.598;2023-03-14T12:04:03;15.10;74.90
10891;DHT22;5498;50.928;11.598;2023-03-14T12:07:16;15.20;74.70
10891;DHT22;5498;50.928;11.598;2023-03-14T12:10:21;15.30;74.60
10891;DHT22;5498;50.928;11.598;2023-03-14T12:13:28;15.30;74.20
10891;DHT22;5498;50.928;11.598;2023-03-14T12:16:36;15.40;74.10
10891;DHT22;5498;50.928;11.598;2023-03-14T12:19:39;15.40;74.10
10891;DHT22;5498;50.928;11.598;2023-03-14T12:22:43;15.50;73.80
10891;DHT22;5498;50.928;11.598;2023-03-14T12:26:12;15.50;72.80
10891;DHT22;5498;50.928;11.598;2023-03-14T12:29:17;15.50;72.70
10891;DHT22;5498;50.928;11.598;2023-03-14T12:36:59;15.50;72.70
10891;DHT22;5498;50.928;11.598;2023-03-14T12:40:15;15.40;73.40
10891;DHT22;5498;50.928;11.598;2023-03-14T12:43:28;15.40;73.50
10891;DHT22;5498;50.928;11.598;2023-03-14T12:46:30;15.40;73.30
10891;DHT22;5498;50.928;11.598;2023-03-14T12:49:33;15.40;73.10
10891;DHT22;5498;50.928;11.598;2023-03-14T12:52:44;15.40;73.40
10891;DHT22;5498;50.928;11.598;2023-03-14T12:55:58;15.50;73.20
10891;DHT22;5498;50.928;11.598;2023-03-14T12:59:25;15.50;72.70
10891;DHT22;5498;50.928;11.598;2023-03-14T13:02:37;15.50;73.10
10891;DHT22;5498;50.928;11.598;2023-03-14T13:05:52;15.60;72.70
10891;DHT22;5498;50.928;11.598;2023-03-14T13:08:54;16.00;73.00
10891;DHT22;5498;50.928;11.598;2023-03-14T13:12:01;15.70;72.30
10891;DHT22;5498;50.928;11.598;2023-03-14T13:15:15;15.70;72.00
10891;DHT22;5498;50.928;11.598;2023-03-14T13:18:27;15.70;72.30
10891;DHT22;5498;50.928;11.598;2023-03-14T13:21:35;15.70;72.20
10891;DHT22;5498;50.928;11.598;2023-03-14T13:24:37;15.70;72.10
10891;DHT22;5498;50.928;11.598;2023-03-14T13:27:40;15.80;71.40
10891;DHT22;5498;50.928;11.598;2023-03-14T13:30:46;15.80;71.00
10891;DHT22;5498;50.928;11.598;2023-03-14T13:33:57;15.80;70.70
10891;DHT22;5498;50.928;11.598;2023-03-14T13:37:01;15.70;70.50
10891;DHT22;5498;50.928;11.598;2023-03-14T13:40:04;15.90;70.40
10891;DHT22;5498;50.928;11.598;2023-03-14T13:43:21;15.60;71.10
10891;DHT22;5498;50.928;11.598;2023-03-14T13:46:27;15.60;71.40
10891;DHT22;5498;50.928;11.598;2023-03-14T13:49:29;15.60;71.40
10891;DHT22;5498;50.928;11.598;2023-03-14T13:52:37;15.50;72.00
10891;DHT22;5498;50.928;11.598;2023-03-14T13:55:39;15.50;72.10
10891;DHT22;5498;50.928;11.598;2023-03-14T13:58:41;15.40;71.80
10891;DHT22;5498;50.928;11.598;2023-03-14T14:01:46;15.40;72.30
10891;DHT22;5498;50.928;11.598;2023-03-14T14:04:48;15.30;72.70
10891;DHT22;5498;50.928;11.598;2023-03-14T14:07:50;15.30;72.50
10891;DHT22;5498;50.928;11.598;2023-03-14T14:10:56;15.20;72.30
10891;DHT22;5498;50.928;11.598;2023-03-14T14:14:01;15.10;72.60
10891;DHT22;5498;50.928;11.598;2023-03-14T14:17:07;15.00;72.80
10891;DHT22;5498;50.928;11.598;2023-03-14T14:20:17;14.90;74.60
10891;DHT22;5498;50.928;11.598;2023-03-14T14:23:25;14.80;75.50
10891;DHT22;5498;50.928;11.598;2023-03-14T14:26:29;14.70;76.10
10891;DHT22;5498;50.928;11.598;2023-03-14T14:29:32;14.60;76.50
10891;DHT22;5498;50.928;11.598;2023-03-14T14:32:38;14.50;77.90
10891;DHT22;5498;50.928;11.598;2023-03-14T14:35:41;14.40;79.00
10891;DHT22;5498;50.928;11.598;2023-03-14T14:38:49;14.20;79.30
10891;DHT22;5498;50.928;11.598;2023-03-14T14:41:53;14.10;80.20
10891;DHT22;5498;50.928;11.598;2023-03-14T14:44:56;14.00;80.60
10891;DHT22;5498;50.928;11.598;2023-03-14T14:48:05;13.90;81.40
10891;DHT22;5498;50.928;11.598;2023-03-14T14:51:10;13.80;81.60
10891;DHT22;5498;50.928;11.598;2023-03-14T14:54:15;13.60;81.80
10891;DHT22;5498;50.928;11.598;2023-03-14T14:57:20;13.40;82.60
10891;DHT22;5498;50.928;11.598;2023-03-14T15:00:26;13.30;82.00
10891;DHT22;5498;50.928;11.598;2023-03-14T15:03:32;13.00;78.80
10891;DHT22;5498;50.928;11.598;2023-03-14T15:06:36;12.70;80.50
10891;DHT22;5498;50.928;11.598;2023-03-14T15:09:41;12.40;81.40
10891;DHT22;5498;50.928;11.598;2023-03-14T15:12:43;12.20;82.10
10891;DHT22;5498;50.928;11.598;2023-03-14T15:15:46;11.90;82.70
10891;DHT22;5498;50.928;11.598;2023-03-14T15:18:52;11.80;82.90
10891;DHT22;5498;50.928;11.598;2023-03-14T15:21:56;11.70;83.00
10891;DHT22;5498;50.928;11.598;2023-03-14T15:24:58;11.50;83.70
10891;DHT22;5498;50.928;11.598;2023-03-14T15:28:00;11.50;84.10
10891;DHT22;5498;50.928;11.598;2023-03-14T15:31:02;11.30;83.50
10891;DHT22;5498;50.928;11.598;2023-03-14T15:34:05;11.20;83.70
10891;DHT22;5498;50.928;11.598;2023-03-14T15:37:10;11.10;83.50
10891;DHT22;5498;50.928;11.598;2023-03-14T15:40:13;11.10;83.60
10891;DHT22;5498;50.928;11.598;2023-03-14T15:43:16;11.00;83.10
10891;DHT22;5498;50.928;11.598;2023-03-14T15:46:18;10.80;82.30
10891;DHT22;5498;50.928;11.598;2023-03-14T15:49:23;10.70;81.90
10891;DHT22;5498;50.928;11.598;2023-03-14T15:52:25;10.50;81.40
10891;DHT22;5498;50.928;11.598;2023-03-14T15:55:27;10.30;81.70
10891;DHT22;5498;50.928;11.598;2023-03-14T15:58:28;10.20;83.00
10891;DHT22;5498;50.928;11.598;2023-03-14T16:01:34;10.00;82.80
10891;DHT22;5498;50.928;11.598;2023-03-14T16:04:37;9.90;82.40
10891;DHT22;5498;50.928;11.598;2023-03-14T16:07:39;9.70;82.10
10891;DHT22;5498;50.928;11.598;2023-03-14T16:10:41;9.70;81.50
10891;DHT22;5498;50.928;11.598;2023-03-14T16:13:44;9.50;81.70
10891;DHT22;5498;50.928;11.598;2023-03-14T16:16:46;9.40;81.00
10891;DHT22;5498;50.928;11.598;2023-03-14T16:19:49;9.40;81.20
10891;DHT22;5498;50.928;11.598;2023-03-14T16:22:51;9.20;81.60
10891;DHT22;5498;50.928;11.598;2023-03-14T16:25:54;9.20;81.90
10891;DHT22;5498;50.928;11.598;2023-03-14T16:28:57;9.10;82.70
10891;DHT22;5498;50.928;11.598;2023-03-14T16:31:58;9.00;82.30
10891;DHT22;5498;50.928;11.598;2023-03-14T16:35:02;8.90;82.50
10891;DHT22;5498;50.928;11.598;2023-03-14T16:38:04;8.90;82.80
10891;DHT22;5498;50.928;11.598;2023-03-14T16:41:09;8.80;82.50
10891;DHT22;5498;50.928;11.598;2023-03-14T16:44:12;8.80;83.10
10891;DHT22;5498;50.928;11.598;2023-03-14T16:47:14;8.70;83.00
10891;DHT22;5498;50.928;11.598;2023-03-14T16:50:17;8.70;82.50
10891;DHT22;5498;50.928;11.598;2023-03-14T16:53:19;8.70;82.30
10891;DHT22;5498;50.928;11.598;2023-03-14T16:56:21;8.60;82.00
10891;DHT22;5498;50.928;11.598;2023-03-14T16:59:23;8.60;81.70
10891;DHT22;5498;50.928;11.598;2023-03-14T17:02:28;8.50;81.20
10891;DHT22;5498;50.928;11.598;2023-03-14T17:05:32;8.40;80.60
10891;DHT22;5498;50.928;11.598;2023-03-14T17:08:34;8.40;81.70
10891;DHT22;5498;50.928;11.598;2023-03-14T17:11:35;8.30;80.80
10891;DHT22;5498;50.928;11.598;2023-03-14T17:14:37;8.30;80.70
10891;DHT22;5498;50.928;11.598;2023-03-14T17:17:39;8.20;81.20
10891;DHT22;5498;50.928;11.598;2023-03-14T17:20:42;8.20;80.80
10891;DHT22;5498;50.928;11.598;2023-03-14T17:23:44;8.10;80.70
10891;DHT22;5498;50.928;11.598;2023-03-14T17:26:46;8.10;80.90
10891;DHT22;5498;50.928;11.598;2023-03-14T17:29:48;8.10;80.80
10891;DHT22;5498;50.928;11.598;2023-03-14T17:32:50;8.00;80.50
10891;DHT22;5498;50.928;11.598;2023-03-14T17:35:53;7.90;80.60
10891;DHT22;5498;50.928;11.598;2023-03-14T17:38:55;7.90;80.60
10891;DHT22;5498;50.928;11.598;2023-03-14T17:41:57;7.80;80.80
10891;DHT22;5498;50.928;11.598;2023-03-14T17:44:59;7.80;80.50
10891;DHT22;5498;50.928;11.598;2023-03-14T17:48:01;7.70;80.80
10891;DHT22;5498;50.928;11.598;2023-03-14T17:51:05;7.70;81.60
10891;DHT22;5498;50.928;11.598;2023-03-14T17:54:06;7.70;81.60
10891;DHT22;5498;50.928;11.598;2023-03-14T17:57:08;7.70;81.50
10891;DHT22;5498;50.928;11.598;2023-03-14T18:00:12;7.70;82.20
10891;DHT22;5498;50.928;11.598;2023-03-14T18:03:14;7.70;82.40
10891;DHT22;5498;50.928;11.598;2023-03-14T18:06:17;7.70;82.00
10891;DHT22;5498;50.928;11.598;2023-03-14T18:09:19;7.70;82.20
10891;DHT22;5498;50.928;11.598;2023-03-14T18:12:22;7.80;82.20
10891;DHT22;5498;50.928;11.598;2023-03-14T18:15:24;7.70;81.90
10891;DHT22;5498;50.928;11.598;2023-03-14T18:18:25;7.80;81.70
10891;DHT22;5498;50.928;11.598;2023-03-14T18:21:30;7.70;81.20
10891;DHT22;5498;50.928;11.598;2023-03-14T18:24:32;7.70;81.20
10891;DHT22;5498;50.928;11.598;2023-03-14T18:27:34;7.60;81.00
10891;DHT22;5498;50.928;11.598;2023-03-14T18:30:36;7.70;80.90
10891;DHT22;5498;50.928;11.598;2023-03-14T18:33:38;7.60;79.60
10891;DHT22;5498;50.928;11.598;2023-03-14T18:36:43;7.60;79.50
10891;DHT22;5498;50.928;11.598;2023-03-14T18:39:44;7.50;79.20
10891;DHT22;5498;50.928;11.598;2023-03-14T18:42:46;7.50;79.20
10891;DHT22;5498;50.928;11.598;2023-03-14T18:45:48;7.50;78.80
10891;DHT22;5498;50.928;11.598;2023-03-14T18:48:50;7.50;78.50
10891;DHT22;5498;50.928;11.598;2023-03-14T18:51:57;7.50;78.60
10891;DHT22;5498;50.928;11.598;2023-03-14T18:54:58;7.50;78.70
10891;DHT22;5498;50.928;11.598;2023-03-14T18:58:00;7.50;78.70
10891;DHT22;5498;50.928;11.598;2023-03-14T19:01:03;7.50;78.10
10891;DHT22;5498;50.928;11.598;2023-03-14T19:04:05;7.40;78.20
10891;DHT22;5498;50.928;11.598;2023-03-14T19:07:09;7.40;78.10
10891;DHT22;5498;50.928;11.598;2023-03-14T19:10:13;7.30;77.40
10891;DHT22;5498;50.928;11.598;2023-03-14T19:13:15;6.80;77.30
10891;DHT22;5498;50.928;11.598;2023-03-14T19:16:17;7.30;77.50
10891;DHT22;5498;50.928;11.598;2023-03-14T19:19:21;7.30;77.30
10891;DHT22;5498;50.928;11.598;2023-03-14T19:22:24;7.20;76.80
10891;DHT22;5498;50.928;11.598;2023-03-14T19:25:26;7.20;77.20
10891;DHT22;5498;50.928;11.598;2023-03-14T19:28:31;7.00;76.80